Time;durP1;ratioP1;P1;durP2;ratioP2;P2;SDS_P1;SDS_P2;PMS_P1;PMS_P2;Temp;Humidity;BMP_temperature;BMP_pressure;BME280_temperature;BME280_humidity;BME280_pressure;Samples;Min_cycle;Max_cycle;Signal;HPM_P1;HPM_P2
2023/04/28 00:02:12;;;;;;;;;;;;;;;25.07;29.88;100905.38;5099584;28;1914;-25
2023/04/28 00:04:38;;;;;;;;;;;;;;;25.05;30.15;100910.94;5099151;28;1112;-27
2023/04/28 00:07:03;;;;;;;;;;;;;;;25.13;30.00;100904.72;5099449;28;1031;-27
2023/04/28 00:09:29;;;;;;;;;;;;;;;25.09;30.24;100906.03;5098867;28;980;-25
2023/04/28 00:11:54;;;;;;;;;;;;;;;24.93;30.56;100902.31;5099626;28;1066;-26
2023/04/28 00:14:20;;;;;;;;;;;;;;;24.75;30.75;100898.88;5099110;28;1091;-25
2023/04/28 00:16:45;;;;;;;;;;;;;;;25.04;30.32;100898.47;5081398;28;1141;-26
2023/04/28 00:19:11;;;;;;;;;;;;;;;25.06;30.35;100895.59;5099165;28;1050;-25
2023/04/28 00:21:36;;;;;;;;;;;;;;;25.14;30.01;100901.00;5096493;28;1974;-25
2023/04/28 00:24:02;;;;;;;;;;;;;;;25.04;30.26;100909.22;5099336;28;1114;-28
2023/04/28 00:26:28;;;;;;;;;;;;;;;25.11;30.13;100922.88;5098346;28;1014;-26
2023/04/28 00:28:53;;;;;;;;;;;;;;;25.14;30.19;100919.03;5098153;28;1033;-25
2023/04/28 00:31:19;;;;;;;;;;;;;;;24.96;30.20;100928.03;5099005;28;1185;-26
2023/04/28 00:33:44;;;;;;;;;;;;;;;25.12;30.10;100932.66;5080298;28;1115;-27
2023/04/28 00:36:10;;;;;;;;;;;;;;;25.10;30.04;100931.97;5099270;28;1221;-25
2023/04/28 00:38:36;;;;;;;;;;;;;;;25.06;29.98;100927.91;5099335;28;1138;-24
2023/04/28 00:41:01;;;;;;;;;;;;;;;25.12;30.03;100924.56;5080506;28;1906;-26
2023/04/28 00:43:27;;;;;;;;;;;;;;;25.03;30.30;100921.00;5080632;28;1131;-27
2023/04/28 00:45:53;;;;;;;;;;;;;;;25.01;30.32;100916.78;5080052;28;1214;-25
2023/04/28 00:48:18;;;;;;;;;;;;;;;24.92;30.52;100924.84;5098798;28;1045;-27
2023/04/28 00:50:44;;;;;;;;;;;;;;;25.11;30.19;100925.56;5098328;28;1141;-25
2023/04/28 00:53:10;;;;;;;;;;;;;;;25.06;30.34;100926.06;5098748;28;1106;-28
2023/04/28 00:55:35;;;;;;;;;;;;;;;25.00;30.33;100932.09;5080089;28;1203;-27
2023/04/28 00:58:01;;;;;;;;;;;;;;;25.06;30.39;100919.81;5079742;28;1138;-28
2023/04/28 01:00:26;;;;;;;;;;;;;;;25.02;30.37;100924.72;5080020;28;1980;-25
2023/04/28 01:02:52;;;;;;;;;;;;;;;25.09;30.08;100924.06;5080416;28;1161;-26
2023/04/28 01:05:19;;;;;;;;;;;;;;;25.05;30.36;100924.38;5080248;28;1230;-29
2023/04/28 01:07:45;;;;;;;;;;;;;;;25.03;30.34;100922.84;5087864;28;1077;-25
2023/04/28 01:10:10;;;;;;;;;;;;;;;24.99;30.60;100930.41;5096950;28;916;-25
2023/04/28 01:12:36;;;;;;;;;;;;;;;24.98;30.26;100933.25;5080084;28;1138;-25
2023/04/28 01:15:01;;;;;;;;;;;;;;;25.10;30.30;100928.41;5079602;28;1126;-25
2023/04/28 01:17:28;;;;;;;;;;;;;;;25.09;30.03;100932.13;5079810;28;1110;-27
2023/04/28 01:19:54;;;;;;;;;;;;;;;25.01;30.17;100941.84;5079831;28;1186;-27
2023/04/28 01:22:20;;;;;;;;;;;;;;;25.16;30.04;100927.75;5078976;28;1905;-26
2023/04/28 01:24:46;;;;;;;;;;;;;;;25.07;30.22;100929.59;5079721;28;1082;-25
2023/04/28 01:27:13;;;;;;;;;;;;;;;25.06;30.11;100928.75;5079525;28;1167;-26
2023/04/28 01:29:40;;;;;;;;;;;;;;;25.12;30.15;100923.72;5062942;28;1111;-26
2023/04/28 01:32:06;;;;;;;;;;;;;;;25.01;30.19;100914.94;5097581;28;1030;-28
2023/04/28 01:34:32;;;;;;;;;;;;;;;25.03;30.36;100925.53;5079446;28;1340;-27
2023/04/28 01:36:58;;;;;;;;;;;;;;;24.99;30.56;100919.63;5097527;28;1208;-27
2023/04/28 01:39:23;;;;;;;;;;;;;;;25.13;30.26;100912.78;5097205;28;1094;-28
2023/04/28 01:41:49;;;;;;;;;;;;;;;24.94;30.47;100925.53;5077991;28;1982;-28
2023/04/28 01:44:14;;;;;;;;;;;;;;;24.93;30.46;100923.00;5097330;28;1026;-25
2023/04/28 01:46:40;;;;;;;;;;;;;;;25.02;30.45;100915.81;5097186;28;876;-25
2023/04/28 01:49:05;;;;;;;;;;;;;;;25.05;30.30;100924.38;5079383;28;1123;-26
2023/04/28 01:51:32;;;;;;;;;;;;;;;25.11;30.17;100922.06;5097071;28;1065;-27
2023/04/28 01:53:59;;;;;;;;;;;;;;;25.10;30.29;100915.81;5079330;28;1158;-27
2023/04/28 01:56:25;;;;;;;;;;;;;;;25.09;30.35;100915.97;5078902;28;1371;-26
2023/04/28 01:58:53;;;;;;;;;;;;;;;25.08;30.17;100923.22;5075973;28;1305;-26
2023/04/28 02:01:19;;;;;;;;;;;;;;;25.03;30.38;100922.84;5078930;28;1886;-26
2023/04/28 02:03:44;;;;;;;;;;;;;;;25.00;30.35;100928.56;5078694;28;1182;-28
2023/04/28 02:06:10;;;;;;;;;;;;;;;24.97;30.54;100932.44;5078900;28;1161;-28
2023/04/28 02:08:36;;;;;;;;;;;;;;;25.01;30.48;100931.09;5096458;28;1150;-25
2023/04/28 02:11:02;;;;;;;;;;;;;;;25.02;30.50;100921.19;5097325;28;1125;-25
2023/04/28 02:13:28;;;;;;;;;;;;;;;25.04;30.46;100927.25;5078556;28;1078;-25
2023/04/28 02:15:54;;;;;;;;;;;;;;;24.94;30.47;100925.53;5078702;28;1217;-28
2023/04/28 02:18:20;;;;;;;;;;;;;;;25.00;30.71;100932.09;5078566;28;1126;-25
2023/04/28 02:20:45;;;;;;;;;;;;;;;25.12;30.39;100921.03;5096554;28;1971;-25
2023/04/28 02:23:11;;;;;;;;;;;;;;;25.03;30.31;100926.41;5077013;28;1143;-25
2023/04/28 02:25:36;;;;;;;;;;;;;;;25.15;30.58;100936.84;5097065;28;1213;-26
2023/04/28 02:28:02;;;;;;;;;;;;;;;25.08;30.44;100939.34;5078377;28;1250;-25
2023/04/28 02:30:28;;;;;;;;;;;;;;;25.02;30.50;100935.50;5097040;28;1097;-25
2023/04/28 02:32:54;;;;;;;;;;;;;;;25.10;30.52;100937.34;5082981;28;1105;-24
2023/04/28 02:35:20;;;;;;;;;;;;;;;25.06;30.36;100928.75;5096467;28;1114;-25
2023/04/28 02:37:46;;;;;;;;;;;;;;;25.01;30.26;100938.31;5078012;28;1238;-26
2023/04/28 02:40:11;;;;;;;;;;;;;;;25.06;30.22;100950.28;5061362;28;1301;-26
2023/04/28 02:42:37;;;;;;;;;;;;;;;25.04;30.58;100946.09;5074890;28;1906;-25
2023/04/28 02:45:02;;;;;;;;;;;;;;;25.09;30.39;100950.97;5085724;28;1114;-24
2023/04/28 02:47:28;;;;;;;;;;;;;;;25.10;30.38;100963.41;5078376;28;1105;-26
2023/04/28 02:49:53;;;;;;;;;;;;;;;25.05;30.23;100959.38;5096923;28;1118;-25
2023/04/28 02:52:20;;;;;;;;;;;;;;;25.07;30.66;100964.59;5077610;28;1110;-26
2023/04/28 02:54:47;;;;;;;;;;;;;;;25.07;30.35;100960.03;5096531;28;1047;-24
2023/04/28 02:57:14;;;;;;;;;;;;;;;25.03;30.41;100961.38;5078077;28;1194;-26
2023/04/28 02:59:39;;;;;;;;;;;;;;;25.04;30.37;100967.63;5078205;28;1155;-25
2023/04/28 03:02:08;;;;;;;;;;;;;;;25.00;30.64;100966.25;5093055;28;1996;-26
2023/04/28 03:04:33;;;;;;;;;;;;;;;24.99;30.57;100968.09;5085935;28;1024;-26
2023/04/28 03:06:59;;;;;;;;;;;;;;;25.02;30.54;100964.25;5078219;28;1154;-26
2023/04/28 03:09:25;;;;;;;;;;;;;;;25.11;30.71;100976.72;5060967;28;1138;-27
2023/04/28 03:11:50;;;;;;;;;;;;;;;25.05;30.89;100967.47;5096528;28;1360;-26
2023/04/28 03:14:16;;;;;;;;;;;;;;;25.08;30.54;100971.66;5078224;28;1285;-27
2023/04/28 03:16:42;;;;;;;;;;;;;;;25.09;30.46;100977.88;5077885;28;1197;-26
2023/04/28 03:19:07;;;;;;;;;;;;;;;24.93;31.09;100979.50;5078189;28;1153;-26
2023/04/28 03:21:33;;;;;;;;;;;;;;;24.14;24.94;100977.69;5076672;28;1918;-31
2023/04/28 03:23:58;;;;;;;;;;;;;;;22.90;24.12;100978.16;5095793;28;1328;-28
2023/04/28 03:26:24;;;;;;;;;;;;;;;22.95;24.74;100995.50;5077495;28;1055;-28
2023/04/28 03:28:51;;;;;;;;;;;;;;;22.52;23.94;100997.78;5078093;28;1280;-27
2023/04/28 03:31:17;;;;;;;;;;;;;;;22.88;22.91;100994.41;5096017;28;1226;-26
2023/04/28 03:33:45;;;;;;;;;;;;;;;22.85;22.98;100997.38;5095795;28;1051;-28
2023/04/28 03:36:11;;;;;;;;;;;;;;;22.66;23.03;101004.50;5077215;28;1205;-31
2023/04/28 03:38:37;;;;;;;;;;;;;;;22.59;23.05;100998.84;5096039;28;1078;-31
2023/04/28 03:41:03;;;;;;;;;;;;;;;21.92;23.91;101010.38;5077584;28;1914;-27
2023/04/28 03:43:28;;;;;;;;;;;;;;;23.82;25.89;101006.84;5095937;28;1058;-29
2023/04/28 03:46:07;;;;;;;;;;;;;;;24.14;23.30;101005.41;5077242;28;1253;-28
2023/04/28 03:48:32;;;;;;;;;;;;;;;23.89;23.83;101012.44;5077505;28;1252;-28
2023/04/28 03:50:58;;;;;;;;;;;;;;;23.65;23.53;101016.56;5063182;28;1492;-29
2023/04/28 03:53:24;;;;;;;;;;;;;;;22.65;24.08;101015.38;5077504;28;1149;-27
2023/04/28 03:55:50;;;;;;;;;;;;;;;23.02;23.29;101016.38;5095745;28;1129;-27
2023/04/28 03:58:16;;;;;;;;;;;;;;;23.90;22.93;101028.41;5076826;28;1285;-26
2023/04/28 04:00:44;;;;;;;;;;;;;;;24.68;22.71;101028.66;5069444;28;1910;-30
2023/04/28 04:03:09;;;;;;;;;;;;;;;25.00;21.58;101025.47;5077779;28;1222;-29
2023/04/28 04:05:35;;;;;;;;;;;;;;;25.08;22.40;101028.19;5079550;28;1117;-25
2023/04/28 04:08:01;;;;;;;;;;;;;;;25.52;22.28;101035.22;5081026;28;1294;-28
2023/04/28 04:10:27;;;;;;;;;;;;;;;25.95;21.64;101041.50;5080945;28;1110;-28
2023/04/28 04:12:53;;;;;;;;;;;;;;;26.35;21.58;101039.00;5081103;28;1297;-25
2023/04/28 04:15:19;;;;;;;;;;;;;;;25.56;22.73;101039.25;5081221;28;1357;-27
2023/04/28 04:17:46;;;;;;;;;;;;;;;25.10;23.15;101034.25;5080761;28;1473;-27
2023/04/28 04:20:11;;;;;;;;;;;;;;;25.97;22.59;101034.13;5081477;28;1170;-27
2023/04/28 04:22:37;;;;;;;;;;;;;;;25.41;23.27;101033.66;5072622;28;1914;-27
2023/04/28 04:25:02;;;;;;;;;;;;;;;25.46;23.55;101037.72;5099214;28;1154;-27
2023/04/28 04:27:28;;;;;;;;;;;;;;;25.42;23.45;101032.66;5081071;28;1118;-26
2023/04/28 04:29:54;;;;;;;;;;;;;;;25.32;23.54;101040.06;5081205;28;1253;-26
2023/04/28 04:32:19;;;;;;;;;;;;;;;25.31;23.77;101035.66;5080748;28;1062;-30
2023/04/28 04:34:45;;;;;;;;;;;;;;;25.55;23.51;101039.44;5080439;28;1234;-29
2023/04/28 04:37:10;;;;;;;;;;;;;;;25.42;24.08;101037.22;5099071;28;1130;-28
2023/04/28 04:39:42;;;;;;;;;;;;;;;25.40;24.23;101033.84;5080425;28;1206;-27
2023/04/28 04:42:08;;;;;;;;;;;;;;;25.86;23.51;101049.59;5080806;28;1910;-27
2023/04/28 04:44:41;;;;;;;;;;;;;;;25.54;24.41;101051.22;5080433;28;1394;-26
2023/04/28 04:47:11;;;;;;;;;;;;;;;25.59;24.43;101056.09;5079876;28;1303;-25
2023/04/28 04:49:37;;;;;;;;;;;;;;;25.61;24.77;101054.09;5080192;28;1333;-30
2023/04/28 04:52:02;;;;;;;;;;;;;;;25.56;24.80;101055.41;5098733;28;1066;-29
2023/04/28 04:54:29;;;;;;;;;;;;;;;25.65;24.47;101055.47;5079582;28;1134;-27
2023/04/28 04:56:56;;;;;;;;;;;;;;;25.82;24.81;101053.66;5080459;28;1258;-30
2023/04/28 04:59:37;;;;;;;;;;;;;;;25.86;24.98;101049.59;5079369;28;1154;-30
2023/04/28 05:02:08;;;;;;;;;;;;;;;25.71;25.34;101051.28;5068488;28;1903;-25
2023/04/28 05:04:33;;;;;;;;;;;;;;;26.12;24.45;101043.22;5078391;28;1075;-27
2023/04/28 05:06:59;;;;;;;;;;;;;;;25.87;25.34;101045.06;5080293;28;1106;-25
2023/04/28 05:09:24;;;;;;;;;;;;;;;25.64;25.71;101041.16;5079889;28;1236;-26
2023/04/28 05:11:50;;;;;;;;;;;;;;;25.88;25.31;101044.88;5079834;28;1346;-25
2023/04/28 05:14:16;;;;;;;;;;;;;;;25.85;25.55;101049.75;5080075;28;1098;-25
2023/04/28 05:16:41;;;;;;;;;;;;;;;25.72;25.95;101050.25;5079699;28;1154;-31
2023/04/28 05:19:14;;;;;;;;;;;;;;;26.01;25.97;101044.38;5080159;28;1110;-27
2023/04/28 05:21:40;;;;;;;;;;;;;;;25.90;26.23;101063.59;5097683;28;1905;-25
2023/04/28 05:24:06;;;;;;;;;;;;;;;26.04;26.04;101054.00;5079154;28;1352;-27
2023/04/28 05:26:31;;;;;;;;;;;;;;;25.97;25.85;101055.66;5080304;28;1198;-29
2023/04/28 05:29:02;;;;;;;;;;;;;;;26.33;25.24;101057.19;5079603;28;1177;-28
2023/04/28 05:31:28;;;;;;;;;;;;;;;26.01;25.68;101054.31;5098128;28;1213;-26
2023/04/28 05:33:53;;;;;;;;;;;;;;;26.24;25.39;101057.16;5079201;28;1537;-26
2023/04/28 05:36:19;;;;;;;;;;;;;;;25.86;25.19;101062.25;5096974;28;830;-25
2023/04/28 05:38:45;;;;;;;;;;;;;;;25.93;25.27;101057.84;5079805;28;1206;-26
2023/04/28 05:41:11;;;;;;;;;;;;;;;26.13;25.41;101061.06;5066382;28;1986;-26
2023/04/28 05:43:39;;;;;;;;;;;;;;;25.77;24.90;101062.25;5079181;28;1118;-27
2023/04/28 05:46:04;;;;;;;;;;;;;;;25.90;24.83;101060.88;5077171;28;1209;-24
2023/04/28 05:48:30;;;;;;;;;;;;;;;26.12;24.94;101069.31;5067468;28;1257;-29
2023/04/28 05:50:56;;;;;;;;;;;;;;;25.90;24.62;101059.03;5079214;28;1384;-28
2023/04/28 05:53:22;;;;;;;;;;;;;;;26.13;24.55;101065.59;5078732;28;1488;-27
2023/04/28 05:55:49;;;;;;;;;;;;;;;26.14;24.57;101070.84;5078841;28;1655;-27
2023/04/28 05:58:15;;;;;;;;;;;;;;;25.87;24.22;101069.31;5073225;28;1118;-26
2023/04/28 06:00:40;;;;;;;;;;;;;;;26.03;24.24;101068.47;5097001;28;1909;-26
2023/04/28 06:03:09;;;;;;;;;;;;;;;25.83;24.75;101071.50;5097412;28;1047;-27
2023/04/28 06:05:35;;;;;;;;;;;;;;;26.00;24.05;101064.28;5079001;28;1090;-27
2023/04/28 06:08:02;;;;;;;;;;;;;;;25.87;24.21;101066.63;5100459;28;1091;-26
2023/04/28 06:10:29;;;;;;;;;;;;;;;25.66;24.49;101068.78;5078455;28;1341;-24
2023/04/28 06:12:55;;;;;;;;;;;;;;;26.09;24.48;101069.66;5078630;28;1262;-27
2023/04/28 06:15:21;;;;;;;;;;;;;;;25.88;23.81;101074.53;5096737;28;1066;-26
2023/04/28 06:17:46;;;;;;;;;;;;;;;25.87;24.20;101053.16;5078878;28;1879;-25
2023/04/28 06:20:14;;;;;;;;;;;;;;;25.70;24.54;101069.28;5062464;28;1299;-25
2023/04/28 06:22:40;;;;;;;;;;;;;;;25.74;24.43;101057.16;5078079;28;1991;-28
2023/04/28 06:25:05;;;;;;;;;;;;;;;25.49;24.43;101065.16;5069345;28;1292;-26
2023/04/28 06:27:37;;;;;;;;;;;;;;;25.41;24.57;101068.69;5075937;28;1426;-30
2023/04/28 06:30:03;;;;;;;;;;;;;;;25.23;25.57;101047.25;5068054;28;1150;-29
2023/04/28 06:32:28;;;;;;;;;;;;;;;25.54;24.24;101070.91;5077061;28;1178;-25
2023/04/28 06:34:54;;;;;;;;;;;;;;;25.37;25.30;101077.25;5078438;28;1413;-25
2023/04/28 06:37:19;;;;;;;;;;;;;;;25.29;25.68;101072.69;5078454;28;1165;-25
2023/04/28 06:39:46;;;;;;;;;;;;;;;25.42;25.79;101077.63;5078304;28;1194;-27
2023/04/28 06:42:12;;;;;;;;;;;;;;;25.63;25.74;101073.63;5078317;28;1910;-26
2023/04/28 06:44:41;;;;;;;;;;;;;;;25.76;26.16;101075.84;5078176;28;1262;-25
2023/04/28 06:47:08;;;;;;;;;;;;;;;25.94;25.97;101070.34;5077571;28;1328;-26
2023/04/28 06:49:37;;;;;;;;;;;;;;;25.89;26.43;101059.22;5062134;28;1211;-29
2023/04/28 06:52:02;;;;;;;;;;;;;;;26.48;25.58;101071.69;5096268;28;1058;-25
2023/04/28 06:54:29;;;;;;;;;;;;;;;26.97;25.21;101072.59;5096289;28;1242;-28
2023/04/28 06:56:55;;;;;;;;;;;;;;;26.56;25.28;101067.31;5096208;28;1053;-26
2023/04/28 06:59:23;;;;;;;;;;;;;;;26.35;25.59;101077.59;5090074;28;1408;-25
2023/04/28 07:01:48;;;;;;;;;;;;;;;27.30;24.85;101063.53;5095774;28;1972;-27
2023/04/28 07:04:13;;;;;;;;;;;;;;;26.99;25.81;101080.50;5096128;28;1230;-26
2023/04/28 07:06:39;;;;;;;;;;;;;;;26.99;25.81;101078.63;5095672;28;1218;-26
2023/04/28 07:09:05;;;;;;;;;;;;;;;27.59;25.16;101067.41;5096291;28;1241;-25
2023/04/28 07:11:32;;;;;;;;;;;;;;;27.50;25.18;101072.03;5091102;28;1234;-26
2023/04/28 07:13:57;;;;;;;;;;;;;;;27.42;25.94;101053.16;5095109;28;1138;-26
2023/04/28 07:16:23;;;;;;;;;;;;;;;27.69;25.48;101069.09;5077975;28;1082;-25
2023/04/28 07:18:48;;;;;;;;;;;;;;;27.02;26.51;101064.00;5095628;28;1117;-25
2023/04/28 07:21:14;;;;;;;;;;;;;;;26.77;25.91;101064.91;5078287;28;1910;-26
2023/04/28 07:23:40;;;;;;;;;;;;;;;27.37;25.86;101060.97;5096260;28;1330;-27
2023/04/28 07:26:06;;;;;;;;;;;;;;;27.09;25.48;101062.25;5095869;28;1225;-26
2023/04/28 07:28:32;;;;;;;;;;;;;;;26.59;25.61;101062.38;5096528;28;1455;-29
2023/04/28 07:30:57;;;;;;;;;;;;;;;27.02;26.39;101066.69;5077643;28;1175;-28
2023/04/28 07:33:23;;;;;;;;;;;;;;;26.86;25.06;101067.56;5095833;28;1070;-28
2023/04/28 07:35:51;;;;;;;;;;;;;;;26.49;25.64;101069.84;5092724;28;1383;-27
2023/04/28 07:38:17;;;;;;;;;;;;;;;27.18;26.40;101064.91;5097107;28;1435;-27
2023/04/28 07:40:43;;;;;;;;;;;;;;;26.96;25.36;101051.16;5099872;28;1980;-25
2023/04/28 07:43:08;;;;;;;;;;;;;;;26.60;25.48;101058.69;5082295;28;1094;-25
2023/04/28 07:45:36;;;;;;;;;;;;;;;27.18;26.42;101070.31;5099085;28;1226;-29
2023/04/28 07:48:02;;;;;;;;;;;;;;;26.71;25.53;101057.47;5080580;28;1055;-26
2023/04/28 07:50:28;;;;;;;;;;;;;;;26.59;25.69;101057.00;5099165;28;1011;-26
2023/04/28 07:52:53;;;;;;;;;;;;;;;27.23;26.58;101059.84;5099318;28;1017;-28
2023/04/28 07:55:19;;;;;;;;;;;;;;;26.99;25.21;101065.13;5099133;28;1056;-31
2023/04/28 07:57:44;;;;;;;;;;;;;;;26.49;26.58;101057.19;5098996;28;1078;-29
2023/04/28 08:00:10;;;;;;;;;;;;;;;27.38;25.80;101058.09;5099119;28;1146;-25
2023/04/28 08:02:39;;;;;;;;;;;;;;;27.01;26.17;101062.25;5099134;28;1969;-26
2023/04/28 08:05:06;;;;;;;;;;;;;;;26.69;26.29;101051.44;5099151;28;1086;-30
2023/04/28 08:07:32;;;;;;;;;;;;;;;27.30;25.03;101055.44;5099134;28;1081;-25
2023/04/28 08:09:57;;;;;;;;;;;;;;;26.88;25.48;101042.06;5099400;28;1047;-25
2023/04/28 08:12:23;;;;;;;;;;;;;;;26.75;26.56;101050.72;5099209;28;1050;-24
2023/04/28 08:14:48;;;;;;;;;;;;;;;27.00;25.51;101042.53;5098642;28;1041;-28
2023/04/28 08:17:14;;;;;;;;;;;;;;;26.92;25.40;101045.28;5099352;28;1078;-25
2023/04/28 08:19:39;;;;;;;;;;;;;;;27.17;25.51;101047.06;5099052;28;1213;-26
2023/04/28 08:22:06;;;;;;;;;;;;;;;27.02;25.37;101043.25;5098992;28;1901;-26
2023/04/28 08:24:34;;;;;;;;;;;;;;;26.72;25.70;101032.19;5098208;28;1078;-26
2023/04/28 08:27:01;;;;;;;;;;;;;;;27.23;25.38;101038.22;5098770;28;1063;-25
2023/04/28 08:29:28;;;;;;;;;;;;;;;26.86;25.54;101038.69;5098761;28;1121;-28
2023/04/28 08:31:54;;;;;;;;;;;;;;;26.77;25.38;101037.91;5099170;28;1138;-26
2023/04/28 08:34:19;;;;;;;;;;;;;;;27.24;25.14;101034.53;5098827;28;1034;-27
2023/04/28 08:36:45;;;;;;;;;;;;;;;26.95;25.05;101041.38;5098231;28;1470;-25
2023/04/28 08:39:10;;;;;;;;;;;;;;;26.94;25.65;101024.34;5098633;28;1038;-25
2023/04/28 08:41:37;;;;;;;;;;;;;;;27.15;24.84;101041.81;5099028;28;1985;-25
2023/04/28 08:44:05;;;;;;;;;;;;;;;26.87;25.35;101036.84;5098857;28;1209;-25
2023/04/28 08:46:31;;;;;;;;;;;;;;;27.22;25.44;101031.16;5098388;28;1205;-27
2023/04/28 08:48:58;;;;;;;;;;;;;;;27.01;25.16;101033.44;5080633;28;877;-25
2023/04/28 08:51:32;;;;;;;;;;;;;;;26.75;25.56;101022.88;5098173;28;1202;-25
2023/04/28 08:53:57;;;;;;;;;;;;;;;27.42;24.89;101020.75;5098563;28;1225;-24
2023/04/28 08:56:23;;;;;;;;;;;;;;;27.12;24.75;101005.22;5079939;28;1097;-25
2023/04/28 08:58:49;;;;;;;;;;;;;;;26.97;25.53;101023.16;5098657;28;1050;-26
2023/04/28 09:01:14;;;;;;;;;;;;;;;27.57;24.87;101014.56;5079903;28;1918;-25
2023/04/28 09:03:40;;;;;;;;;;;;;;;27.16;25.06;101016.50;5098593;28;1125;-25
2023/04/28 09:06:06;;;;;;;;;;;;;;;27.02;25.31;101008.16;5080508;28;1202;-27
2023/04/28 09:08:31;;;;;;;;;;;;;;;27.65;24.94;100997.44;5098512;28;1047;-23
2023/04/28 09:11:07;;;;;;;;;;;;;;;27.05;23.09;101058.25;5098219;28;1201;-24
2023/04/28 09:13:33;;;;;;;;;;;;;;;25.99;19.08;101016.75;5097854;28;882;-25
2023/04/28 09:15:59;;;;;;;;;;;;;;;26.62;19.63;101004.56;5097057;28;1126;-26
2023/04/28 09:18:26;;;;;;;;;;;;;;;26.73;20.87;101014.13;5096917;28;1015;-25
2023/04/28 09:20:51;;;;;;;;;;;;;;;27.00;22.12;100993.09;5096648;28;1975;-25
2023/04/28 09:23:18;;;;;;;;;;;;;;;27.09;23.21;100991.22;5097139;28;1137;-30
2023/04/28 09:25:59;;;;;;;;;;;;;;;26.81;23.61;101007.88;5097288;28;1233;-27
2023/04/28 09:28:25;;;;;;;;;;;;;;;27.31;22.95;101003.06;5097995;28;1101;-25
2023/04/28 09:30:50;;;;;;;;;;;;;;;26.78;23.70;101009.03;5098152;28;1122;-25
2023/04/28 09:33:16;;;;;;;;;;;;;;;26.89;23.48;100999.75;5097936;28;1050;-27
2023/04/28 09:35:42;;;;;;;;;;;;;;;27.08;23.48;100997.63;5098021;28;1141;-25
2023/04/28 09:38:08;;;;;;;;;;;;;;;26.86;23.39;101006.31;5097024;28;869;-24
2023/04/28 09:40:44;;;;;;;;;;;;;;;27.10;23.44;100988.34;5098434;28;1066;-29
2023/04/28 09:43:21;;;;;;;;;;;;;;;26.88;23.77;100996.19;5078842;28;1290;-26
2023/04/28 09:45:47;;;;;;;;;;;;;;;26.88;24.08;100984.53;5097369;28;1062;-24
2023/04/28 09:48:12;;;;;;;;;;;;;;;27.36;23.43;100994.47;5097247;28;1133;-25
2023/04/28 09:50:40;;;;;;;;;;;;;;;26.91;23.87;100984.19;5097461;28;1085;-24
2023/04/28 09:53:06;;;;;;;;;;;;;;;26.91;23.89;100986.88;5097243;28;1189;-25
2023/04/28 09:55:32;;;;;;;;;;;;;;;27.12;23.50;100982.78;5079578;28;1046;-26
2023/04/28 09:57:59;;;;;;;;;;;;;;;26.74;24.27;100970.75;5079289;28;1043;-24
2023/04/28 10:00:24;;;;;;;;;;;;;;;27.17;23.75;100982.25;5078801;28;1213;-27
2023/04/28 10:02:50;;;;;;;;;;;;;;;27.13;23.59;100979.03;5078336;28;1986;-25
2023/04/28 10:05:16;;;;;;;;;;;;;;;26.88;23.95;100993.50;5079457;28;1066;-28
2023/04/28 10:07:41;;;;;;;;;;;;;;;27.26;23.70;100973.91;5073813;28;1161;-25
2023/04/28 10:10:07;;;;;;;;;;;;;;;26.93;24.11;100978.59;5070672;28;1127;-24
2023/04/28 10:12:33;;;;;;;;;;;;;;;26.80;24.51;100971.06;5096356;28;1066;-25
2023/04/28 10:14:59;;;;;;;;;;;;;;;27.53;23.67;100973.56;5096760;28;1185;-26
2023/04/28 10:17:25;;;;;;;;;;;;;;;26.86;24.51;100970.41;5096853;28;1070;-24
2023/04/28 10:19:51;;;;;;;;;;;;;;;26.96;24.28;100968.31;5097014;28;1045;-24
2023/04/28 10:22:35;;;;;;;;;;;;;;;27.25;23.84;100988.44;5096931;28;1917;-25
2023/04/28 10:25:14;;;;;;;;;;;;;;;26.92;24.34;100975.09;5096552;28;1123;-25
2023/04/28 10:27:43;;;;;;;;;;;;;;;27.35;23.99;100977.41;5096600;28;1043;-26
2023/04/28 10:30:12;;;;;;;;;;;;;;;26.99;24.32;100961.72;5096861;28;1114;-24
2023/04/28 10:32:37;;;;;;;;;;;;;;;27.08;24.38;100976.88;5096792;28;1051;-24
2023/04/28 10:35:22;;;;;;;;;;;;;;;27.54;23.91;100979.81;5078411;28;1180;-24
2023/04/28 10:38:07;;;;;;;;;;;;;;;27.13;23.96;100969.09;5084347;28;1173;-26
2023/04/28 10:40:35;;;;;;;;;;;;;;;27.33;24.11;100957.81;5085024;28;1039;-27
2023/04/28 10:43:01;;;;;;;;;;;;;;;27.16;23.99;100962.47;5096509;28;1910;-25
2023/04/28 10:45:45;;;;;;;;;;;;;;;27.06;24.26;100976.22;5096279;28;1138;-26
2023/04/28 10:48:11;;;;;;;;;;;;;;;27.56;23.99;100956.97;5096563;28;1197;-24
2023/04/28 10:50:36;;;;;;;;;;;;;;;27.05;24.08;100935.91;5096278;28;947;-25
2023/04/28 10:53:03;;;;;;;;;;;;;;;26.98;24.24;100984.31;5078436;28;1085;-26
2023/04/28 10:55:31;;;;;;;;;;;;;;;27.14;21.50;100959.97;5096167;28;1221;-26
2023/04/28 10:58:15;;;;;;;;;;;;;;;26.62;22.84;100970.31;5096079;28;1112;-28
2023/04/28 11:00:41;;;;;;;;;;;;;;;27.14;23.13;100959.16;5095665;28;1538;-25
2023/04/28 11:03:07;;;;;;;;;;;;;;;26.98;23.33;100968.13;5096204;28;1090;-24
2023/04/28 11:05:35;;;;;;;;;;;;;;;26.64;23.37;100956.66;5078360;28;1082;-26
2023/04/28 11:08:20;;;;;;;;;;;;;;;27.20;23.28;100955.72;5096296;28;1164;-24
2023/04/28 11:11:04;;;;;;;;;;;;;;;26.97;23.60;100952.97;5096658;28;1154;-28
2023/04/28 11:13:33;;;;;;;;;;;;;;;26.78;23.78;100955.06;5095171;28;1066;-28
2023/04/28 11:16:02;;;;;;;;;;;;;;;27.01;23.50;100959.66;5096128;28;1062;-27
2023/04/28 11:18:27;;;;;;;;;;;;;;;26.46;24.02;100955.03;5096096;28;1054;-27
2023/04/28 11:20:53;;;;;;;;;;;;;;;26.77;24.34;100962.34;5096007;28;1914;-25
2023/04/28 11:23:19;;;;;;;;;;;;;;;27.09;23.53;100966.94;5078032;28;1238;-24
2023/04/28 11:25:54;;;;;;;;;;;;;;;26.95;23.81;100955.84;5077690;28;972;-27
2023/04/28 11:28:20;;;;;;;;;;;;;;;27.30;23.30;100958.19;5095967;28;1077;-25
2023/04/28 11:30:45;;;;;;;;;;;;;;;26.89;23.12;100968.16;5096404;28;1154;-25
2023/04/28 11:33:11;;;;;;;;;;;;;;;26.29;20.74;101008.97;5095859;28;1158;-25
2023/04/28 11:35:42;;;;;;;;;;;;;;;27.08;18.58;100994.94;5095455;28;1038;-25
2023/04/28 11:38:08;;;;;;;;;;;;;;;26.37;17.21;100969.56;5095407;28;1253;-25
2023/04/28 11:40:33;;;;;;;;;;;;;;;26.57;19.37;100970.00;5095812;28;1034;-26
2023/04/28 11:43:00;;;;;;;;;;;;;;;27.30;18.20;100970.84;5096089;28;1910;-25
2023/04/28 11:45:25;;;;;;;;;;;;;;;26.61;18.42;100968.63;5077655;28;1440;-24
2023/04/28 11:47:51;;;;;;;;;;;;;;;26.87;19.55;100958.56;5094841;28;1058;-25
2023/04/28 11:50:16;;;;;;;;;;;;;;;26.74;19.45;100961.84;5081954;28;921;-26
2023/04/28 11:52:48;;;;;;;;;;;;;;;26.62;19.55;100962.22;5095621;28;1237;-25
2023/04/28 11:55:15;;;;;;;;;;;;;;;27.18;19.82;100965.00;5095931;28;1034;-26
2023/04/28 11:57:40;;;;;;;;;;;;;;;26.67;21.76;100969.78;5095863;28;1031;-26
2023/04/28 12:00:13;;;;;;;;;;;;;;;26.81;21.48;100962.81;5095845;28;1230;-25
2023/04/28 12:02:38;;;;;;;;;;;;;;;26.82;21.60;100951.00;5094939;28;1945;-24
2023/04/28 12:05:05;;;;;;;;;;;;;;;26.65;22.15;100964.56;5095671;28;1082;-25
2023/04/28 12:07:38;;;;;;;;;;;;;;;26.99;21.38;100959.84;5095854;28;1160;-25
2023/04/28 12:10:14;;;;;;;;;;;;;;;27.08;21.02;100959.84;5095726;28;1097;-25
2023/04/28 12:12:41;;;;;;;;;;;;;;;26.64;22.06;100948.56;5095427;28;1254;-25
2023/04/28 12:15:07;;;;;;;;;;;;;;;27.08;21.62;100949.03;5077786;28;928;-25
2023/04/28 12:17:40;;;;;;;;;;;;;;;26.53;22.23;100941.69;5095721;28;1169;-25
2023/04/28 12:20:10;;;;;;;;;;;;;;;26.49;21.57;100937.66;5096179;28;1003;-24
2023/04/28 12:22:42;;;;;;;;;;;;;;;26.88;19.77;100966.50;5086580;28;1890;-24
2023/04/28 12:25:09;;;;;;;;;;;;;;;25.94;17.88;100926.63;5096074;28;1101;-25
2023/04/28 12:27:35;;;;;;;;;;;;;;;26.73;19.34;100925.06;5094861;28;984;-23
2023/04/28 12:30:00;;;;;;;;;;;;;;;26.83;19.00;100928.41;5095306;28;1253;-24
2023/04/28 12:32:38;;;;;;;;;;;;;;;26.81;20.49;100924.19;5099251;28;1224;-24
2023/04/28 12:35:04;;;;;;;;;;;;;;;27.22;20.12;100929.38;5099075;28;1058;-25
2023/04/28 12:37:31;;;;;;;;;;;;;;;26.83;21.69;100924.84;5097280;28;1193;-26
2023/04/28 12:39:56;;;;;;;;;;;;;;;26.73;22.53;100916.97;5098877;28;991;-29
2023/04/28 12:42:22;;;;;;;;;;;;;;;27.67;21.46;100911.63;5099026;28;1979;-24
2023/04/28 12:44:49;;;;;;;;;;;;;;;27.03;22.03;100917.19;5098759;28;1253;-23
2023/04/28 12:47:15;;;;;;;;;;;;;;;27.08;22.61;100933.69;5098940;28;1201;-24